Time;durP1;ratioP1;P1;durP2;ratioP2;P2;SDS_P1;SDS_P2;PMS_P1;PMS_P2;Temp;Humidity;BMP_temperature;BMP_pressure;BME280_temperature;BME280_humidity;BME280_pressure;Samples;Min_cycle;Max_cycle;Signal;HPM_P1;HPM_P2
2022/12/25 00:00:35;;;;;;;7.05;3.80;;;22.60;78.50;;;;;;6299751;27;90096;-65
2022/12/25 00:03:37;;;;;;;4.43;3.53;;;22.60;78.60;;;;;;6297418;27;89081;-65
2022/12/25 00:06:39;;;;;;;6.13;3.42;;;22.60;78.50;;;;;;6293917;27;87987;-65
2022/12/25 00:09:41;;;;;;;7.47;3.80;;;22.60;78.60;;;;;;6304966;27;89472;-65
2022/12/25 00:12:45;;;;;;;5.32;3.80;;;22.60;78.60;;;;;;6302139;27;87986;-65
2022/12/25 00:15:47;;;;;;;5.15;3.50;;;22.60;78.60;;;;;;6290528;27;89123;-65
2022/12/25 00:18:50;;;;;;;4.60;3.55;;;22.60;78.60;;;;;;6299168;27;89273;-65
2022/12/25 00:21:52;;;;;;;6.00;3.88;;;22.60;78.60;;;;;;6303409;27;88369;-65
2022/12/25 00:24:54;;;;;;;5.05;3.30;;;22.60;78.70;;;;;;6307052;27;89037;-65
2022/12/25 00:27:57;;;;;;;4.70;3.30;;;22.50;78.70;;;;;;6305881;27;88159;-64
2022/12/25 00:30:59;;;;;;;4.15;3.33;;;22.50;78.60;;;;;;6304879;27;90202;-65
2022/12/25 00:34:01;;;;;;;4.70;3.22;;;22.50;78.80;;;;;;6297597;27;88158;-64
2022/12/25 00:37:03;;;;;;;5.47;3.33;;;22.50;78.80;;;;;;6298568;27;89078;-65
2022/12/25 00:40:07;;;;;;;4.43;3.30;;;22.50;78.80;;;;;;6291909;27;89405;-64
2022/12/25 00:43:10;;;;;;;7.13;3.80;;;22.50;78.80;;;;;;6292352;27;88999;-64
2022/12/25 00:46:13;;;;;;;4.55;3.22;;;22.50;78.90;;;;;;6305178;27;89401;-65
2022/12/25 00:49:15;;;;;;;6.07;3.50;;;22.50;78.80;;;;;;6282243;27;89051;-65
2022/12/25 00:52:17;;;;;;;5.63;3.22;;;22.50;78.80;;;;;;6304755;27;88710;-64
2022/12/25 00:55:19;;;;;;;4.40;3.13;;;22.40;78.70;;;;;;6292678;27;89305;-65
2022/12/25 00:58:23;;;;;;;4.65;3.13;;;22.50;78.80;;;;;;6302569;27;89139;-65
2022/12/25 01:01:25;;;;;;;4.88;3.38;;;22.40;78.80;;;;;;6288479;27;89972;-65
2022/12/25 01:04:27;;;;;;;4.32;3.28;;;22.40;78.80;;;;;;6298610;27;88992;-64
2022/12/25 01:07:29;;;;;;;4.50;3.50;;;22.50;79.30;;;;;;6304724;27;91031;-65
2022/12/25 01:10:30;;;;;;;5.03;3.60;;;22.40;78.70;;;;;;6311425;27;89051;-64
2022/12/25 01:13:35;;;;;;;5.50;3.45;;;22.40;78.70;;;;;;6306355;27;89208;-64
2022/12/25 01:16:37;;;;;;;4.70;3.58;;;22.40;78.80;;;;;;6307443;27;89112;-64
2022/12/25 01:19:39;;;;;;;4.65;3.40;;;22.40;78.90;;;;;;6303768;27;90139;-64
2022/12/25 01:22:42;;;;;;;4.32;3.70;;;22.40;78.80;;;;;;6301209;27;88427;-64
2022/12/25 01:25:44;;;;;;;4.72;3.47;;;22.40;78.90;;;;;;6297240;27;89020;-64
2022/12/25 01:28:48;;;;;;;4.45;3.45;;;22.40;78.90;;;;;;6296489;27;89326;-64
2022/12/25 01:31:50;;;;;;;5.03;3.65;;;22.40;79.00;;;;;;6308459;27;90045;-65
2022/12/25 01:34:52;;;;;;;5.50;4.03;;;22.40;79.00;;;;;;6310256;27;89058;-64
2022/12/25 01:37:54;;;;;;;5.50;3.90;;;22.40;79.00;;;;;;6310394;27;89168;-65
2022/12/25 01:40:56;;;;;;;6.38;3.72;;;22.40;79.00;;;;;;6299816;27;88820;-64
2022/12/25 01:44:05;;;;;;;5.95;4.00;;;22.40;79.00;;;;;;6290193;27;89070;-64
2022/12/25 01:47:07;;;;;;;6.05;4.43;;;22.40;79.00;;;;;;6311708;27;89486;-65
2022/12/25 01:50:10;;;;;;;5.30;4.18;;;22.30;78.90;;;;;;6305413;27;89034;-64
2022/12/25 01:53:12;;;;;;;5.07;4.20;;;22.30;79.00;;;;;;6306090;27;87321;-64
2022/12/25 01:56:14;;;;;;;5.47;3.97;;;22.30;78.90;;;;;;6297612;27;89115;-64
2022/12/25 01:59:21;;;;;;;5.72;4.53;;;22.30;78.90;;;;;;6308753;27;88501;-64
2022/12/25 02:02:24;;;;;;;5.65;4.30;;;22.30;78.90;;;;;;6294636;27;89714;-64
2022/12/25 02:05:29;;;;;;;5.60;4.57;;;22.30;78.90;;;;;;6301902;27;89134;-65
2022/12/25 02:08:32;;;;;;;5.70;4.45;;;22.30;78.90;;;;;;6305203;27;89132;-64
2022/12/25 02:14:58;;;;;;;7.90;4.82;;;22.20;78.90;;;;;;6308984;27;88276;-64
2022/12/25 02:18:04;;;;;;;5.03;4.45;;;22.30;79.00;;;;;;6300665;27;89180;-64
2022/12/25 02:21:23;;;;;;;5.45;4.53;;;22.30;79.00;;;;;;6292464;27;89246;-65
2022/12/25 02:25:03;;;;;;;5.50;4.85;;;22.20;78.90;;;;;;6304626;27;87312;-65
2022/12/25 02:28:19;;;;;;;5.72;4.93;;;22.20;78.90;;;;;;6296039;27;89264;-64
2022/12/25 02:31:29;;;;;;;6.32;5.00;;;22.20;78.90;;;;;;6283914;27;89072;-65
2022/12/25 02:34:38;;;;;;;6.10;5.15;;;22.20;78.90;;;;;;6297060;27;89868;-64
2022/12/25 02:37:45;;;;;;;6.45;5.10;;;22.20;78.90;;;;;;6300717;27;89112;-64
2022/12/25 02:40:51;;;;;;;6.30;5.20;;;22.20;78.90;;;;;;6302957;27;89635;-65
2022/12/25 03:07:44;;;;;;;6.80;5.50;;;22.10;78.80;;;;;;6272426;27;89325;-64
2022/12/25 03:17:36;;;;;;;6.05;5.38;;;22.10;78.90;;;;;;6279183;27;87224;-64
2022/12/25 03:27:17;;;;;;;9.43;6.45;;;22.10;78.60;;;;;;6274586;27;88009;-64
2022/12/25 04:38:41;;;;;;;6.82;6.05;;;22.00;78.10;;;;;;6279111;27;86895;-64
2022/12/25 04:41:45;;;;;;;7.32;6.03;;;22.00;79.00;;;;;;6277372;27;87990;-65
2022/12/25 04:44:47;;;;;;;7.88;5.93;;;22.00;77.90;;;;;;6278537;27;89179;-64
2022/12/25 04:47:49;;;;;;;6.55;5.65;;;22.10;78.00;;;;;;6279207;27;91485;-64
2022/12/25 04:50:51;;;;;;;6.93;6.22;;;22.10;77.90;;;;;;6278633;27;89127;-64
2022/12/25 04:53:54;;;;;;;7.60;5.82;;;22.10;77.90;;;;;;6272116;27;89115;-65
2022/12/25 04:56:57;;;;;;;6.80;6.00;;;22.10;77.70;;;;;;6264965;27;89404;-64
2022/12/25 04:59:59;;;;;;;6.97;5.50;;;22.20;77.80;;;;;;6279256;27;88866;-64
2022/12/25 05:03:01;;;;;;;6.28;5.53;;;22.20;77.70;;;;;;6278238;27;89226;-64
2022/12/25 05:06:05;;;;;;;6.50;5.28;;;22.20;77.60;;;;;;6275481;27;89419;-65
2022/12/25 05:09:07;;;;;;;6.78;5.47;;;22.20;77.60;;;;;;6282154;27;88132;-65
2022/12/25 05:12:11;;;;;;;6.45;5.60;;;22.20;77.60;;;;;;6277666;27;89021;-65
2022/12/25 05:15:13;;;;;;;7.20;5.57;;;22.20;77.60;;;;;;6273910;27;89096;-65
2022/12/25 05:18:15;;;;;;;5.90;5.30;;;22.30;77.60;;;;;;6279101;27;90053;-64
2022/12/25 05:21:17;;;;;;;6.50;5.47;;;22.30;77.60;;;;;;6279296;27;89018;-65
2022/12/25 05:24:19;;;;;;;5.53;5.03;;;22.30;77.60;;;;;;6279659;27;89009;-65
2022/12/25 05:27:23;;;;;;;6.47;5.30;;;22.30;77.50;;;;;;6273532;27;89265;-64
2022/12/25 05:30:25;;;;;;;5.85;5.25;;;22.30;77.50;;;;;;6279282;27;89239;-64
2022/12/25 05:33:27;;;;;;;6.22;5.28;;;22.40;77.60;;;;;;6279450;27;89161;-64
2022/12/25 05:36:29;;;;;;;6.32;5.68;;;22.30;77.50;;;;;;6276908;27;88971;-65
2022/12/25 05:39:31;;;;;;;5.50;5.00;;;22.30;77.40;;;;;;6271989;27;88562;-64
2022/12/25 05:42:34;;;;;;;5.90;5.28;;;22.40;77.50;;;;;;6268555;27;89023;-64
2022/12/25 05:45:37;;;;;;;5.65;4.95;;;22.40;77.50;;;;;;6274834;27;89513;-65
2022/12/25 05:48:39;;;;;;;6.95;5.40;;;22.40;77.50;;;;;;6277364;27;90009;-64
2022/12/25 05:51:41;;;;;;;6.15;5.20;;;22.40;77.40;;;;;;6277826;27;88307;-65
2022/12/25 05:54:43;;;;;;;5.53;4.85;;;22.40;77.40;;;;;;6269077;27;89654;-64
2022/12/25 05:57:47;;;;;;;6.07;5.22;;;22.40;77.40;;;;;;6271350;27;88967;-64
2022/12/25 06:00:49;;;;;;;5.80;5.20;;;22.40;77.40;;;;;;6281535;27;89185;-65
2022/12/25 06:03:51;;;;;;;7.47;5.38;;;22.40;77.40;;;;;;6281014;27;89091;-64
2022/12/25 06:06:53;;;;;;;5.68;5.03;;;22.40;77.40;;;;;;6279730;27;89125;-65
2022/12/25 06:09:55;;;;;;;5.43;4.93;;;22.40;77.30;;;;;;6283783;27;86920;-64
2022/12/25 06:12:59;;;;;;;5.68;4.88;;;22.50;77.40;;;;;;6283965;27;89045;-65
2022/12/25 06:16:04;;;;;;;5.32;4.60;;;22.50;77.30;;;;;;6283237;27;89223;-65
2022/12/25 06:19:06;;;;;;;5.93;5.15;;;22.50;77.30;;;;;;6281236;27;90420;-64
2022/12/25 06:22:08;;;;;;;6.10;5.20;;;22.50;77.30;;;;;;6283231;27;89141;-65
2022/12/25 06:25:10;;;;;;;5.47;4.57;;;22.50;77.30;;;;;;6277459;27;89057;-65
2022/12/25 06:28:14;;;;;;;5.10;4.60;;;22.50;77.20;;;;;;6281077;27;89441;-64
2022/12/25 06:31:17;;;;;;;5.35;4.40;;;22.50;77.20;;;;;;6282598;27;89387;-65
2022/12/25 06:34:19;;;;;;;5.20;4.70;;;22.50;77.20;;;;;;6275277;27;89114;-64
2022/12/25 06:37:21;;;;;;;5.97;4.93;;;22.50;77.20;;;;;;6272320;27;88054;-64
2022/12/25 06:40:23;;;;;;;6.15;4.68;;;22.50;77.30;;;;;;6271178;27;88629;-64
2022/12/25 06:43:27;;;;;;;4.97;4.47;;;22.50;77.30;;;;;;6275230;27;89220;-64
2022/12/25 06:46:30;;;;;;;5.00;4.50;;;22.50;77.30;;;;;;6272169;27;88857;-65
2022/12/25 06:49:32;;;;;;;7.00;5.03;;;22.50;77.30;;;;;;6280894;27;90308;-64
2022/12/25 06:52:34;;;;;;;5.18;4.57;;;22.50;77.20;;;;;;6282561;27;89299;-65
2022/12/25 06:55:36;;;;;;;4.88;4.38;;;22.60;77.30;;;;;;6281836;27;88022;-65
2022/12/25 06:58:40;;;;;;;5.05;4.35;;;22.60;77.30;;;;;;6282989;27;89115;-65
2022/12/25 07:01:45;;;;;;;5.03;4.30;;;22.60;77.20;;;;;;6282733;27;89136;-64
2022/12/25 07:04:48;;;;;;;5.10;4.30;;;22.60;77.20;;;;;;6282781;27;89081;-64
2022/12/25 07:07:50;;;;;;;5.05;4.55;;;22.60;77.20;;;;;;6283421;27;88061;-65
2022/12/25 07:10:52;;;;;;;5.13;4.63;;;22.60;77.20;;;;;;6283257;27;88322;-65
2022/12/25 07:13:56;;;;;;;5.20;4.70;;;22.60;77.20;;;;;;6279589;27;89330;-65
2022/12/25 07:16:58;;;;;;;4.82;4.32;;;22.60;77.20;;;;;;6282035;27;89171;-64
2022/12/25 07:20:00;;;;;;;5.18;4.25;;;22.60;77.20;;;;;;6281258;27;89052;-64
2022/12/25 07:23:02;;;;;;;5.28;4.60;;;22.60;77.20;;;;;;6281954;27;89112;-64
2022/12/25 07:26:04;;;;;;;5.20;4.20;;;22.60;77.20;;;;;;6281890;27;89055;-65
2022/12/25 07:29:08;;;;;;;4.40;4.00;;;22.60;77.20;;;;;;6276707;27;89055;-64
2022/12/25 07:32:10;;;;;;;5.00;4.50;;;22.60;77.20;;;;;;6282217;27;89217;-65
2022/12/25 07:35:12;;;;;;;4.53;3.95;;;22.60;77.10;;;;;;6269179;27;89184;-64
2022/12/25 07:38:14;;;;;;;5.30;4.43;;;22.60;78.00;;;;;;6280090;27;89006;-65
2022/12/25 07:41:16;;;;;;;5.50;4.18;;;22.70;77.20;;;;;;6271377;27;87822;-65
2022/12/25 07:44:20;;;;;;;4.50;3.88;;;22.60;77.10;;;;;;6278668;27;89055;-64
2022/12/25 07:47:22;;;;;;;4.88;4.20;;;22.70;77.20;;;;;;6280593;27;89769;-64
2022/12/25 07:50:24;;;;;;;4.60;4.18;;;22.70;77.10;;;;;;6279807;27;90008;-64
2022/12/25 07:53:27;;;;;;;5.07;4.20;;;22.70;77.00;;;;;;6281441;27;89126;-64
2022/12/25 07:56:29;;;;;;;5.57;4.60;;;22.70;77.00;;;;;;6277218;27;89141;-64
2022/12/25 07:59:32;;;;;;;4.97;3.65;;;22.70;76.90;;;;;;6273441;27;89160;-64
2022/12/25 08:02:34;;;;;;;4.88;4.20;;;22.70;76.90;;;;;;6278330;27;88655;-64
2022/12/25 08:05:36;;;;;;;6.28;4.07;;;22.70;77.00;;;;;;6279187;27;88988;-66
2022/12/25 08:08:40;;;;;;;4.65;3.70;;;22.70;77.40;;;;;;6280771;27;89061;-65
2022/12/25 08:11:46;;;;;;;4.38;3.85;;;22.70;77.30;;;;;;6279270;27;88283;-65
2022/12/25 08:14:50;;;;;;;4.70;4.10;;;22.70;77.20;;;;;;6280977;27;89166;-65
2022/12/25 08:17:52;;;;;;;4.78;3.88;;;22.80;77.60;;;;;;6278754;27;89095;-64
2022/12/25 08:20:54;;;;;;;4.45;3.83;;;22.80;77.80;;;;;;6280259;27;89996;-66
2022/12/25 08:23:56;;;;;;;4.68;3.92;;;22.80;77.90;;;;;;6277326;27;89090;-65
2022/12/25 08:26:58;;;;;;;4.70;3.72;;;22.90;78.00;;;;;;6280267;27;89149;-65
2022/12/25 08:30:01;;;;;;;4.30;3.50;;;22.80;77.80;;;;;;6273477;27;89015;-64
2022/12/25 08:33:03;;;;;;;4.22;3.75;;;22.90;77.80;;;;;;6268309;27;89128;-64
2022/12/25 08:36:08;;;;;;;6.15;3.72;;;23.00;78.50;;;;;;6281434;27;89080;-65
2022/12/25 08:39:10;;;;;;;4.28;3.88;;;23.00;79.60;;;;;;6280375;27;89128;-65
2022/12/25 08:42:14;;;;;;;107.55;45.88;;;23.00;78.80;;;;;;6278005;27;88536;-65
2022/12/25 08:45:17;;;;;;;13.88;8.45;;;23.00;78.40;;;;;;6275630;27;88928;-65
2022/12/25 08:48:19;;;;;;;9.27;5.93;;;23.00;78.30;;;;;;6279757;27;89168;-64
2022/12/25 08:51:23;;;;;;;8.40;5.43;;;23.00;78.10;;;;;;6279485;27;90161;-64
2022/12/25 08:54:25;;;;;;;7.93;5.03;;;23.00;78.10;;;;;;6279281;27;89164;-65
2022/12/25 08:57:27;;;;;;;9.05;4.93;;;23.00;78.10;;;;;;6279103;27;89151;-65
2022/12/25 09:00:30;;;;;;;8.32;5.13;;;23.00;78.10;;;;;;6277175;27;89455;-65
2022/12/25 09:03:33;;;;;;;7.00;4.40;;;23.00;78.10;;;;;;6280235;27;88993;-66
2022/12/25 09:06:35;;;;;;;6.35;4.20;;;23.00;78.10;;;;;;6278933;27;89302;-64
2022/12/25 09:09:37;;;;;;;7.53;4.63;;;23.00;78.10;;;;;;6279251;27;89475;-64
2022/12/25 09:12:39;;;;;;;6.85;5.03;;;23.00;78.10;;;;;;6270411;27;88423;-64
2022/12/25 09:15:43;;;;;;;7.75;4.95;;;23.00;78.40;;;;;;6277319;27;89073;-64
2022/12/25 09:18:45;;;;;;;7.53;4.65;;;23.00;78.60;;;;;;6279757;27;88014;-65
2022/12/25 09:21:47;;;;;;;8.55;4.55;;;23.00;78.60;;;;;;6277454;27;89992;-65
2022/12/25 09:24:49;;;;;;;6.88;4.28;;;23.00;78.60;;;;;;6275227;27;89248;-65
2022/12/25 09:27:51;;;;;;;7.68;4.80;;;23.00;79.30;;;;;;6279419;27;88421;-64
2022/12/25 09:30:55;;;;;;;9.25;4.68;;;23.10;79.80;;;;;;6284666;27;89222;-64
2022/12/25 09:33:58;;;;;;;7.30;4.90;;;23.10;79.70;;;;;;6284411;27;88993;-65
2022/12/25 09:37:00;;;;;;;8.57;4.93;;;23.00;79.60;;;;;;6284606;27;87882;-64
2022/12/25 09:40:02;;;;;;;8.88;4.68;;;23.10;80.10;;;;;;6272625;27;89365;-65
2022/12/25 09:43:04;;;;;;;11.60;5.15;;;23.10;79.80;;;;;;6269232;27;88271;-65
2022/12/25 09:46:13;;;;;;;12.38;5.40;;;23.10;79.80;;;;;;6282778;27;89286;-65
2022/12/25 09:49:22;;;;;;;12.00;5.00;;;23.10;80.00;;;;;;6267958;27;87982;-64
2022/12/25 09:52:28;;;;;;;12.63;4.97;;;23.10;80.00;;;;;;6281212;27;90026;-64
2022/12/25 09:55:33;;;;;;;12.38;4.80;;;23.10;80.10;;;;;;6283445;27;89134;-65
2022/12/25 09:58:35;;;;;;;14.10;5.18;;;23.10;80.60;;;;;;6279183;27;89159;-65
2022/12/25 10:01:49;;;;;;;12.75;5.03;;;23.10;81.70;;;;;;6281674;27;90285;-64
2022/12/25 10:05:17;;;;;;;19.27;5.65;;;23.10;82.50;;;;;;6281647;27;89110;-65
2022/12/25 10:08:30;;;;;;;15.00;6.53;;;23.20;83.20;;;;;;6280648;27;88976;-65
2022/12/25 10:11:47;;;;;;;17.23;6.38;;;23.20;83.60;;;;;;6284287;27;89305;-65
2022/12/25 10:15:04;;;;;;;14.93;5.65;;;23.20;82.70;;;;;;6283682;27;88429;-65
2022/12/25 10:18:35;;;;;;;12.57;5.63;;;23.20;82.90;;;;;;6283764;27;89076;-65
2022/12/25 10:21:37;;;;;;;13.10;5.55;;;23.20;82.70;;;;;;6282903;27;89088;-65
2022/12/25 10:24:45;;;;;;;13.80;5.35;;;23.20;82.90;;;;;;6281290;27;90104;-65
2022/12/25 10:27:52;;;;;;;15.48;5.25;;;23.30;83.20;;;;;;6283286;27;89055;-65
2022/12/25 10:30:58;;;;;;;11.40;5.20;;;23.30;83.50;;;;;;6282554;27;89177;-65
2022/12/25 10:34:02;;;;;;;11.15;5.07;;;23.30;83.40;;;;;;6278852;27;89351;-65
2022/12/25 10:37:04;;;;;;;26.70;7.45;;;23.30;83.40;;;;;;6276564;27;88049;-65
2022/12/25 10:40:27;;;;;;;15.00;5.60;;;23.40;91.10;;;;;;6278507;27;88371;-65
2022/12/25 10:43:36;;;;;;;11.80;4.85;;;23.40;91.20;;;;;;6279664;27;88208;-65
2022/12/25 10:46:38;;;;;;;12.57;5.78;;;23.50;90.70;;;;;;6280800;27;88572;-65
2022/12/25 10:49:42;;;;;;;13.82;5.35;;;23.50;90.20;;;;;;6279284;27;89150;-65
2022/12/25 10:52:54;;;;;;;11.35;4.90;;;23.60;90.00;;;;;;6281843;27;89147;-66
2022/12/25 10:55:59;;;;;;;10.20;4.53;;;23.60;89.70;;;;;;6280742;27;90243;-65
2022/12/25 10:59:05;;;;;;;9.75;4.70;;;23.60;88.80;;;;;;6281991;27;89040;-65
2022/12/25 11:02:21;;;;;;;10.30;5.07;;;23.60;87.20;;;;;;6276623;27;89089;-65
2022/12/25 11:05:28;;;;;;;7.20;4.28;;;23.60;87.10;;;;;;6277475;27;89184;-65
2022/12/25 11:08:33;;;;;;;11.70;4.78;;;23.60;88.30;;;;;;6282504;27;89026;-65
2022/12/25 11:11:37;;;;;;;10.57;4.68;;;23.60;87.70;;;;;;6282733;27;89060;-65
2022/12/25 11:14:39;;;;;;;8.85;4.55;;;23.60;86.70;;;;;;6275854;27;88586;-65
2022/12/25 11:17:49;;;;;;;6.85;4.28;;;23.60;86.00;;;;;;6281968;27;88169;-65
2022/12/25 11:20:55;;;;;;;7.72;4.63;;;23.60;85.60;;;;;;6280833;27;89447;-66
2022/12/25 11:23:59;;;;;;;6.18;4.00;;;23.50;86.10;;;;;;6282556;27;89026;-65
2022/12/25 11:27:05;;;;;;;6.82;4.55;;;23.50;85.20;;;;;;6272987;27;90261;-65
2022/12/25 11:30:10;;;;;;;7.80;4.70;;;23.50;84.50;;;;;;6281224;27;89124;-65
2022/12/25 11:33:14;;;;;;;6.95;4.38;;;23.50;85.80;;;;;;6281813;27;87971;-65
2022/12/25 11:36:23;;;;;;;6.97;4.47;;;23.50;84.50;;;;;;6276870;27;89053;-65
2022/12/25 11:39:28;;;;;;;6.80;4.35;;;23.50;83.20;;;;;;6280924;27;87985;-65
2022/12/25 11:42:35;;;;;;;6.13;4.72;;;23.50;82.70;;;;;;6280557;27;89190;-65
2022/12/25 11:45:40;;;;;;;7.47;4.43;;;23.50;82.90;;;;;;6268902;27;89028;-65
2022/12/25 11:48:45;;;;;;;6.68;4.10;;;23.50;83.10;;;;;;6282086;27;88410;-66
2022/12/25 11:51:53;;;;;;;5.25;4.28;;;23.50;84.30;;;;;;6279625;27;89062;-65
2022/12/25 11:55:01;;;;;;;6.15;4.10;;;23.50;84.10;;;;;;6280193;27;89312;-65
2022/12/25 11:58:13;;;;;;;6.32;4.18;;;23.60;83.40;;;;;;6281361;27;90171;-66
2022/12/25 12:01:30;;;;;;;6.78;3.95;;;23.50;82.70;;;;;;6278956;27;89119;-66
2022/12/25 12:04:38;;;;;;;5.18;4.18;;;23.50;82.20;;;;;;6280960;27;89009;-65
2022/12/25 12:07:55;;;;;;;6.28;4.10;;;23.50;82.20;;;;;;6281522;27;87966;-65
2022/12/25 12:11:15;;;;;;;6.13;3.85;;;23.50;82.60;;;;;;6281762;27;89225;-65
2022/12/25 12:14:30;;;;;;;5.40;4.00;;;23.60;83.50;;;;;;6280632;27;89391;-64
2022/12/25 12:17:32;;;;;;;8.32;4.18;;;23.50;84.60;;;;;;6280378;27;87943;-64
2022/12/25 12:20:36;;;;;;;6.30;4.18;;;23.60;84.90;;;;;;6279425;27;88319;-65
2022/12/25 12:23:50;;;;;;;5.55;4.10;;;23.60;86.00;;;;;;6274930;27;87954;-65
2022/12/25 12:27:03;;;;;;;5.75;4.00;;;23.60;86.70;;;;;;6276800;27;89127;-65
2022/12/25 12:30:07;;;;;;;7.05;4.35;;;23.50;86.20;;;;;;6271764;27;88971;-65
2022/12/25 12:33:20;;;;;;;4.60;3.65;;;23.50;86.10;;;;;;6280053;27;89188;-65
2022/12/25 12:36:25;;;;;;;4.93;3.80;;;23.60;85.90;;;;;;6259407;27;87913;-65
2022/12/25 12:39:35;;;;;;;4.60;3.80;;;23.60;85.80;;;;;;6276314;27;89061;-65
2022/12/25 12:42:45;;;;;;;5.55;3.80;;;23.60;85.70;;;;;;6279468;27;88071;-65
2022/12/25 12:45:55;;;;;;;5.55;4.10;;;23.60;85.50;;;;;;6279306;27;89071;-65
2022/12/25 12:49:09;;;;;;;6.05;4.10;;;23.60;85.40;;;;;;6271647;27;88273;-65
2022/12/25 12:52:24;;;;;;;6.63;3.90;;;23.60;85.40;;;;;;6280267;27;88663;-65
2022/12/25 12:55:33;;;;;;;7.93;4.00;;;23.60;85.50;;;;;;6271664;27;89620;-65
2022/12/25 12:58:38;;;;;;;9.10;4.72;;;23.60;85.70;;;;;;6279702;27;89019;-65
2022/12/25 13:01:47;;;;;;;7.75;4.18;;;23.60;86.00;;;;;;6279969;27;90014;-65
2022/12/25 13:04:57;;;;;;;7.18;4.07;;;23.60;86.10;;;;;;6279340;27;89130;-65
2022/12/25 13:08:08;;;;;;;9.10;4.07;;;23.50;86.10;;;;;;6279172;27;89057;-65
2022/12/25 13:11:16;;;;;;;7.72;3.97;;;23.50;86.10;;;;;;6279587;27;89144;-65
2022/12/25 13:14:20;;;;;;;8.30;3.80;;;23.50;86.10;;;;;;6279112;27;89082;-64
2022/12/25 13:17:25;;;;;;;7.90;3.83;;;23.50;86.10;;;;;;6279505;27;89182;-65
2022/12/25 13:20:40;;;;;;;7.00;4.03;;;23.50;86.10;;;;;;6278251;27;89147;-64
2022/12/25 13:23:42;;;;;;;9.13;3.70;;;23.50;86.10;;;;;;6279878;27;88521;-65
2022/12/25 13:26:46;;;;;;;8.50;4.30;;;23.40;86.10;;;;;;6276832;27;89172;-65
2022/12/25 13:29:48;;;;;;;6.75;3.90;;;23.40;86.20;;;;;;6276748;27;89020;-65
2022/12/25 13:32:50;;;;;;;5.95;3.55;;;23.40;86.10;;;;;;6277184;27;88711;-65
2022/12/25 13:35:52;;;;;;;6.65;3.70;;;23.40;86.10;;;;;;6268294;27;89013;-64
2022/12/25 13:38:56;;;;;;;7.70;3.58;;;23.40;86.40;;;;;;6270892;27;89122;-65
2022/12/25 13:42:08;;;;;;;5.60;3.72;;;23.40;86.50;;;;;;6274220;27;87996;-64
2022/12/25 13:45:21;;;;;;;5.00;3.30;;;23.40;86.60;;;;;;6268629;27;89121;-65
2022/12/25 13:48:24;;;;;;;7.43;3.95;;;23.50;86.50;;;;;;6277709;27;89092;-64
2022/12/25 13:51:27;;;;;;;8.15;3.83;;;23.50;86.60;;;;;;6278510;27;89313;-65
2022/12/25 13:54:29;;;;;;;232.90;65.05;;;23.60;87.00;;;;;;6278719;27;88352;-64
2022/12/25 13:57:35;;;;;;;30.40;10.20;;;23.60;93.20;;;;;;6277610;27;89321;-66
2022/12/25 14:00:39;;;;;;;18.38;7.30;;;23.60;92.10;;;;;;6276789;27;89745;-65
2022/12/25 14:03:44;;;;;;;14.65;5.97;;;23.60;90.60;;;;;;6277697;27;90278;-65
2022/12/25 14:06:46;;;;;;;16.75;6.05;;;23.50;88.10;;;;;;6276742;27;89068;-65
2022/12/25 14:09:52;;;;;;;14.60;5.43;;;23.50;86.80;;;;;;6272145;27;89036;-65
2022/12/25 14:12:59;;;;;;;10.68;4.90;;;23.50;85.50;;;;;;6279264;27;89560;-66
2022/12/25 14:16:01;;;;;;;10.40;5.38;;;23.40;84.70;;;;;;6279113;27;89111;-65
2022/12/25 14:19:18;;;;;;;15.23;5.32;;;23.50;84.60;;;;;;6282952;27;88985;-65
2022/12/25 14:22:22;;;;;;;17.65;9.88;;;23.50;90.00;;;;;;6282569;27;89105;-65
2022/12/25 14:25:29;;;;;;;15.18;5.35;;;23.50;92.40;;;;;;6281775;27;88323;-66
2022/12/25 14:28:33;;;;;;;19.45;6.97;;;23.60;92.70;;;;;;6282930;27;89434;-65
2022/12/25 14:31:39;;;;;;;12.23;5.18;;;23.60;95.00;;;;;;6281982;27;88671;-66
2022/12/25 14:34:45;;;;;;;11.18;4.90;;;23.60;92.10;;;;;;6281067;27;90315;-65
2022/12/25 14:37:49;;;;;;;10.18;4.57;;;23.60;91.60;;;;;;6283684;27;89088;-66
2022/12/25 14:40:59;;;;;;;12.48;4.38;;;23.60;90.80;;;;;;6279376;27;89148;-65
2022/12/25 14:44:05;;;;;;;11.52;4.28;;;23.70;90.00;;;;;;6282180;27;89212;-65
2022/12/25 14:47:16;;;;;;;9.95;4.63;;;23.60;89.20;;;;;;6268262;27;88279;-65
2022/12/25 14:50:27;;;;;;;10.38;4.72;;;23.60;87.90;;;;;;6280801;27;89123;-65
2022/12/25 14:53:36;;;;;;;10.30;4.35;;;23.70;87.80;;;;;;6279921;27;88386;-65
2022/12/25 14:56:38;;;;;;;8.45;3.95;;;23.60;86.90;;;;;;6280155;27;87287;-66
2022/12/25 14:59:42;;;;;;;9.52;4.03;;;23.60;86.70;;;;;;6283290;27;88222;-65
2022/12/25 15:02:47;;;;;;;13.15;4.50;;;23.70;86.50;;;;;;6281726;27;89169;-66
2022/12/25 15:06:00;;;;;;;9.75;4.50;;;23.60;87.10;;;;;;6279690;27;89830;-66
2022/12/25 15:09:05;;;;;;;8.77;3.90;;;23.60;87.50;;;;;;6275546;27;89338;-66
2022/12/25 15:12:07;;;;;;;9.27;4.05;;;23.60;86.60;;;;;;6273753;27;88122;-65
2022/12/25 15:15:11;;;;;;;11.00;4.60;;;23.60;86.10;;;;;;6282121;27;89030;-66
2022/12/25 15:18:13;;;;;;;11.63;5.45;;;23.60;86.30;;;;;;6267970;27;89166;-66
2022/12/25 15:21:17;;;;;;;7.88;4.65;;;23.60;86.70;;;;;;6283025;27;89302;-66
2022/12/25 15:24:19;;;;;;;8.48;4.93;;;23.60;86.10;;;;;;6281536;27;89095;-66
2022/12/25 15:27:22;;;;;;;7.53;4.20;;;23.60;86.60;;;;;;6282261;27;87608;-65
2022/12/25 15:30:26;;;;;;;8.82;4.40;;;23.60;86.60;;;;;;6270322;27;89146;-66
2022/12/25 15:33:28;;;;;;;11.15;4.88;;;23.60;86.10;;;;;;6280693;27;87939;-66
2022/12/25 15:36:31;;;;;;;9.52;5.07;;;23.60;87.80;;;;;;6270030;27;89974;-66
2022/12/25 15:39:33;;;;;;;7.93;4.60;;;23.60;89.40;;;;;;6279311;27;89036;-67
2022/12/25 15:42:35;;;;;;;10.30;5.30;;;23.60;88.20;;;;;;6279348;27;89170;-66
2022/12/25 15:45:38;;;;;;;9.30;4.28;;;23.70;88.70;;;;;;6277323;27;88712;-66
2022/12/25 15:48:40;;;;;;;11.27;4.00;;;23.70;87.00;;;;;;6275557;27;89069;-66
2022/12/25 15:51:43;;;;;;;8.15;4.10;;;23.70;89.30;;;;;;6272936;27;87810;-66
2022/12/25 15:54:45;;;;;;;8.63;4.40;;;23.70;90.00;;;;;;6264926;27;89548;-66
2022/12/25 15:57:50;;;;;;;8.48;3.70;;;23.70;90.30;;;;;;6280242;27;87480;-66
2022/12/25 16:00:54;;;;;;;9.57;4.00;;;23.80;90.10;;;;;;6279532;27;89100;-66
2022/12/25 16:03:56;;;;;;;10.48;3.95;;;23.80;89.60;;;;;;6268794;27;89165;-66
2022/12/25 16:06:59;;;;;;;8.95;3.90;;;23.80;90.00;;;;;;6278855;27;89975;-66
2022/12/25 16:10:01;;;;;;;10.00;4.30;;;23.80;90.20;;;;;;6280012;27;88089;-66
2022/12/25 16:13:03;;;;;;;7.55;3.85;;;23.80;90.30;;;;;;6280702;27;89303;-67
2022/12/25 16:16:07;;;;;;;8.80;4.18;;;23.80;89.00;;;;;;6279389;27;89008;-67
2022/12/25 16:19:09;;;;;;;13.27;4.47;;;23.90;87.40;;;;;;6278468;27;89112;-67
2022/12/25 16:22:12;;;;;;;8.10;4.47;;;23.90;87.10;;;;;;6280873;27;88304;-66
2022/12/25 16:25:16;;;;;;;13.15;4.25;;;23.90;87.70;;;;;;6281253;27;87877;-67
2022/12/25 16:28:19;;;;;;;14.20;4.32;;;24.00;91.30;;;;;;6277500;27;88727;-67
2022/12/25 16:31:22;;;;;;;13.35;4.10;;;24.00;91.20;;;;;;6277159;27;89055;-66
2022/12/25 16:34:24;;;;;;;15.20;5.55;;;24.10;92.40;;;;;;6278999;27;89212;-66
2022/12/25 16:37:27;;;;;;;11.43;4.70;;;24.20;93.60;;;;;;6279281;27;90030;-65
2022/12/25 16:40:29;;;;;;;15.68;5.72;;;24.30;96.20;;;;;;6263500;27;89004;-67
2022/12/25 16:43:31;;;;;;;10.60;5.00;;;24.40;99.90;;;;;;6271884;27;90877;-65
2022/12/25 16:46:35;;;;;;;12.77;4.60;;;24.40;96.80;;;;;;6276718;27;89202;-67
2022/12/25 16:49:37;;;;;;;12.77;5.32;;;24.50;94.40;;;;;;6276353;27;89012;-68
2022/12/25 16:52:39;;;;;;;9.30;4.80;;;24.50;99.90;;;;;;6279218;27;89093;-69
2022/12/25 16:55:41;;;;;;;11.45;5.00;;;24.50;99.90;;;;;;6278981;27;88007;-72
2022/12/25 16:58:45;;;;;;;12.15;6.13;;;24.50;97.50;;;;;;6273503;27;88360;-72
2022/12/25 17:01:49;;;;;;;12.85;5.93;;;24.50;97.30;;;;;;6275501;27;89119;-71
2022/12/25 17:04:51;;;;;;;17.85;12.38;;;24.50;97.00;;;;;;6274893;27;89091;-70
2022/12/25 17:07:53;;;;;;;28.80;21.30;;;24.50;96.30;;;;;;6277795;27;90150;-70
2022/12/25 17:10:55;;;;;;;31.02;23.38;;;24.50;95.90;;;;;;6272672;27;89099;-71
2022/12/25 17:13:58;;;;;;;31.85;25.33;;;24.50;95.10;;;;;;6278638;27;89034;-69
2022/12/25 17:17:02;;;;;;;35.88;26.85;;;24.50;94.60;;;;;;6276287;27;89105;-70
2022/12/25 17:20:05;;;;;;;36.72;28.80;;;24.50;94.30;;;;;;6271416;27;89107;-70
2022/12/25 17:23:08;;;;;;;38.08;28.88;;;24.50;94.00;;;;;;6277858;27;89444;-69
2022/12/25 17:26:10;;;;;;;35.22;30.00;;;24.50;94.00;;;;;;6271706;27;88996;-70
2022/12/25 17:29:13;;;;;;;38.05;33.05;;;24.50;94.00;;;;;;6277134;27;88155;-69
2022/12/25 17:32:16;;;;;;;87.53;79.03;;;24.40;93.70;;;;;;6274973;27;88947;-69
2022/12/25 17:35:20;;;;;;;163.35;147.35;;;24.40;94.00;;;;;;6278229;27;87961;-70
2022/12/25 17:38:22;;;;;;;284.95;258.60;;;24.40;93.90;;;;;;6269849;27;90084;-75
2022/12/25 17:41:24;;;;;;;336.83;306.02;;;24.40;93.50;;;;;;6267301;27;89440;-73
2022/12/25 17:44:26;;;;;;;336.38;305.52;;;24.30;92.90;;;;;;6276945;27;88689;-70